createdAt,value
2023-03-17T00:01:31.324Z,154.88
2023-03-17T00:05:31.317Z,154.31
2023-03-17T00:09:31.274Z,153.47
2023-03-17T00:13:31.274Z,154.28
2023-03-17T00:17:31.215Z,154.60
2023-03-17T00:21:31.193Z,153.14
2023-03-17T00:25:31.177Z,152.63
2023-03-17T00:29:31.113Z,152.06
2023-03-17T00:33:31.044Z,151.13
2023-03-17T00:37:31.054Z,151.82
2023-03-17T00:41:30.994Z,152.04
2023-03-17T00:45:30.983Z,150.65
2023-03-17T00:49:30.904Z,150.20
2023-03-17T00:53:30.903Z,149.93
2023-03-17T00:57:30.874Z,151.02
2023-03-17T01:01:30.794Z,149.44
2023-03-17T01:05:30.946Z,149.79
2023-03-17T01:09:30.749Z,150.67
2023-03-17T01:13:30.729Z,150.65
2023-03-17T01:17:30.686Z,148.60
2023-03-17T01:21:30.624Z,148.78
2023-03-17T01:25:30.607Z,148.05
2023-03-17T01:29:30.572Z,149.73
2023-03-17T01:33:30.559Z,148.38
2023-03-17T01:37:30.528Z,147.26
2023-03-17T01:41:30.458Z,148.09
2023-03-17T01:45:30.461Z,145.29
2023-03-17T01:49:30.400Z,146.66
2023-03-17T01:53:30.391Z,146.81
2023-03-17T01:57:30.321Z,145.37
2023-03-17T02:01:30.319Z,145.62
2023-03-17T02:05:30.265Z,146.02
2023-03-17T02:09:30.227Z,145.75
2023-03-17T02:13:30.202Z,144.92
2023-03-17T02:17:30.188Z,144.37
2023-03-17T02:21:30.108Z,143.39
2023-03-17T02:25:30.114Z,143.80
2023-03-17T02:29:30.030Z,143.54
2023-03-17T02:33:30.048Z,143.85
2023-03-17T02:37:29.974Z,141.80
2023-03-17T02:41:29.970Z,142.54
2023-03-17T02:45:29.945Z,142.37
2023-03-17T02:49:29.867Z,142.20
2023-03-17T02:53:29.835Z,140.15
2023-03-17T02:57:29.840Z,140.51
2023-03-17T03:01:29.941Z,139.98
2023-03-17T03:05:29.845Z,140.97
2023-03-17T03:09:29.769Z,140.58
2023-03-17T03:13:29.730Z,138.79
2023-03-17T03:17:29.704Z,138.86
2023-03-17T03:21:29.650Z,138.11
2023-03-17T03:25:29.642Z,137.44
2023-03-17T03:29:29.600Z,137.58
2023-03-17T03:33:29.565Z,137.90
2023-03-17T03:37:29.551Z,135.38
2023-03-17T03:41:29.477Z,131.87
2023-03-17T03:45:29.441Z,133.80
2023-03-17T03:49:29.424Z,133.81
2023-03-17T03:53:29.456Z,132.68
2023-03-17T03:57:29.385Z,129.42
2023-03-17T04:01:29.337Z,129.56
2023-03-17T04:05:29.316Z,126.98
2023-03-17T04:09:29.300Z,125.81
2023-03-17T04:13:29.274Z,126.70
2023-03-17T04:17:29.248Z,124.73
2023-03-17T04:21:29.202Z,122.63
2023-03-17T04:25:29.127Z,122.52
2023-03-17T04:29:29.120Z,120.05
2023-03-17T04:33:29.097Z,119.96
2023-03-17T04:37:29.053Z,119.72
2023-03-17T04:41:29.002Z,120.48
2023-03-17T04:45:28.982Z,118.08
2023-03-17T04:49:28.940Z,117.96
2023-03-17T04:53:28.914Z,117.27
2023-03-17T04:57:28.887Z,116.29
2023-03-17T05:01:28.904Z,112.77
2023-03-17T05:05:28.797Z,112.72
2023-03-17T05:09:28.823Z,111.62
2023-03-17T05:13:28.721Z,113.03
2023-03-17T05:17:28.739Z,111.83
2023-03-17T05:21:28.841Z,112.29
2023-03-17T05:25:28.901Z,110.71
2023-03-17T05:29:29.041Z,111.13
2023-03-17T05:33:29.114Z,108.56
2023-03-17T05:37:29.248Z,110.32
2023-03-17T05:41:29.343Z,109.41
2023-03-17T05:45:29.464Z,108.42
2023-03-17T05:49:29.557Z,106.43
2023-03-17T05:53:29.656Z,106.92
2023-03-17T05:57:29.753Z,104.05
2023-03-17T06:01:29.820Z,108.37
2023-03-17T06:05:29.891Z,106.50
2023-03-17T06:09:29.993Z,106.20
2023-03-17T06:13:30.073Z,105.24
2023-03-17T06:17:30.205Z,108.19
2023-03-17T06:21:30.304Z,108.89
2023-03-17T06:25:30.706Z,108.69
2023-03-17T06:29:31.079Z,109.33
2023-03-17T06:33:30.473Z,106.42
2023-03-17T06:37:30.479Z,84.75
2023-03-17T06:41:30.689Z,96.76
2023-03-17T06:45:31.325Z,104.86
2023-03-17T06:49:31.072Z,115.17
2023-03-17T06:53:31.121Z,128.25
2023-03-17T06:57:30.613Z,145.69
2023-03-17T07:01:30.612Z,160.91
2023-03-17T07:05:30.926Z,167.96
2023-03-17T07:09:30.595Z,151.79
2023-03-17T07:13:30.413Z,164.28
2023-03-17T07:17:30.377Z,168.74
2023-03-17T07:21:30.384Z,176.35
2023-03-17T07:25:30.653Z,181.64
2023-03-17T07:29:30.597Z,185.51
2023-03-17T07:33:30.299Z,188.16
2023-03-17T07:37:30.284Z,189.32
2023-03-17T07:41:30.525Z,191.13
2023-03-17T07:45:31.428Z,194.87
2023-03-17T07:49:41.274Z,99.02
2023-03-17T07:53:31.752Z,34.13
2023-03-17T07:57:31.143Z,79.34
2023-03-17T08:01:30.964Z,94.00
2023-03-17T08:05:31.004Z,98.76
2023-03-17T08:09:31.627Z,107.82
2023-03-17T08:13:31.344Z,116.75
2023-03-17T08:17:31.513Z,126.80
2023-03-17T08:21:31.583Z,131.53
2023-03-17T08:25:31.464Z,144.28
2023-03-17T08:29:31.435Z,155.47
2023-03-17T08:33:31.408Z,161.69
2023-03-17T08:37:31.615Z,170.87
2023-03-17T08:41:31.624Z,178.34
2023-03-17T08:45:31.922Z,187.14
2023-03-17T08:49:31.265Z,180.52
2023-03-17T08:53:31.621Z,133.17
2023-03-17T08:57:31.165Z,115.35
2023-03-17T09:01:31.688Z,72.09
2023-03-17T09:05:31.277Z,121.22
2023-03-17T09:09:31.115Z,128.89
2023-03-17T09:13:31.042Z,141.32
2023-03-17T09:17:31.023Z,151.69
2023-03-17T09:21:30.972Z,156.78
2023-03-17T09:25:30.967Z,161.41
2023-03-17T09:29:30.935Z,167.62
2023-03-17T09:33:30.906Z,175.32
2023-03-17T09:37:31.152Z,179.99
2023-03-17T09:41:30.873Z,311.34
2023-03-17T09:45:31.134Z,249.82
2023-03-17T09:49:31.147Z,250.00
2023-03-17T09:53:31.139Z,249.40
2023-03-17T09:57:31.156Z,246.09
2023-03-17T10:01:30.675Z,246.39
2023-03-17T10:05:31.172Z,249.09
2023-03-17T10:09:30.772Z,248.86
2023-03-17T10:13:30.850Z,248.36
2023-03-17T10:17:30.987Z,248.86
2023-03-17T10:21:31.067Z,248.49
2023-03-17T10:25:31.653Z,249.38
2023-03-17T10:29:31.192Z,250.00
2023-03-17T10:33:31.259Z,246.64
2023-03-17T10:37:31.267Z,246.89
2023-03-17T10:41:31.732Z,246.88
2023-03-17T10:45:31.677Z,247.34
2023-03-17T10:49:31.231Z,242.03
2023-03-17T10:53:31.687Z,239.14
2023-03-17T10:57:31.651Z,236.64
2023-03-17T11:01:31.359Z,232.63
2023-03-17T11:05:31.682Z,229.94
2023-03-17T11:09:31.458Z,227.11
2023-03-17T11:13:31.658Z,224.07
2023-03-17T11:17:31.676Z,220.14
2023-03-17T11:21:31.773Z,217.11
2023-03-17T11:25:31.855Z,214.78
2023-03-17T11:29:31.948Z,212.34
2023-03-17T11:33:32.186Z,210.44
2023-03-17T11:37:32.702Z,42.10
2023-03-17T11:41:32.298Z,18.30
2023-03-17T11:45:32.707Z,71.56
2023-03-17T11:49:32.678Z,78.70
2023-03-17T11:53:32.678Z,113.75
2023-03-17T11:57:32.372Z,127.33
2023-03-17T12:01:32.283Z,137.84
2023-03-17T12:05:32.226Z,149.13
2023-03-17T12:09:32.717Z,157.99
2023-03-17T12:13:32.170Z,163.37
2023-03-17T12:17:32.188Z,169.08
2023-03-17T12:21:32.090Z,172.82
2023-03-17T12:25:32.218Z,176.76
2023-03-17T12:29:32.215Z,179.76
2023-03-17T12:33:32.015Z,184.07
2023-03-17T12:37:32.210Z,184.64
2023-03-17T12:41:32.147Z,183.16
2023-03-17T12:45:32.536Z,181.28
2023-03-17T12:49:32.072Z,60.06
2023-03-17T12:53:32.001Z,26.07
2023-03-17T12:57:31.961Z,30.52
2023-03-17T13:01:32.001Z,24.47
2023-03-17T13:05:32.322Z,25.42
2023-03-17T13:09:32.069Z,76.16
2023-03-17T13:13:32.198Z,89.96
2023-03-17T13:17:31.824Z,97.98
2023-03-17T13:21:34.617Z,103.87
2023-03-17T13:25:32.210Z,107.07
2023-03-17T13:29:31.802Z,118.99
2023-03-17T13:33:31.682Z,127.32
2023-03-17T13:37:31.657Z,130.56
2023-03-17T13:41:31.632Z,135.39
2023-03-17T13:45:32.008Z,138.62
2023-03-17T13:49:31.555Z,141.17
2023-03-17T13:53:31.554Z,144.02
2023-03-17T13:57:31.543Z,147.18
2023-03-17T14:01:31.445Z,149.66
2023-03-17T14:05:31.583Z,150.97
2023-03-17T14:09:31.393Z,152.47
2023-03-17T14:13:31.332Z,154.42
2023-03-17T14:17:31.325Z,154.70
2023-03-17T14:21:31.261Z,155.79
2023-03-17T14:25:31.383Z,156.06
2023-03-17T14:29:31.321Z,157.86
2023-03-17T14:33:31.488Z,160.52
2023-03-17T14:37:31.491Z,162.41
2023-03-17T14:41:32.879Z,161.88
2023-03-17T14:45:31.750Z,162.77
2023-03-17T14:49:31.727Z,164.32
2023-03-17T14:53:31.724Z,163.91
2023-03-17T14:57:31.687Z,164.22
2023-03-17T15:01:31.659Z,165.15
2023-03-17T15:05:31.898Z,165.02
2023-03-17T15:09:31.608Z,165.38
2023-03-17T15:13:31.522Z,165.43
2023-03-17T15:17:31.527Z,164.24
2023-03-17T15:21:31.463Z,164.86
2023-03-17T15:25:31.448Z,164.51
2023-03-17T15:29:31.383Z,164.83
2023-03-17T15:33:31.372Z,164.90
2023-03-17T15:37:31.334Z,165.00
2023-03-17T15:41:31.379Z,164.07
2023-03-17T15:45:31.800Z,164.64
2023-03-17T15:49:31.726Z,163.17
2023-03-17T15:53:31.904Z,163.80
2023-03-17T15:57:32.104Z,163.88
2023-03-17T16:01:32.487Z,163.31
2023-03-17T16:05:32.553Z,162.38
2023-03-17T16:09:32.765Z,163.05
2023-03-17T16:13:32.956Z,163.22
2023-03-17T16:17:33.172Z,162.45
2023-03-17T16:21:33.415Z,162.32
2023-03-17T16:25:33.349Z,161.48
2023-03-17T16:29:33.331Z,161.40
2023-03-17T16:33:33.285Z,161.19
2023-03-17T16:37:33.256Z,160.21
2023-03-17T16:41:33.228Z,160.70
2023-03-17T16:45:33.162Z,159.73
2023-03-17T16:49:33.168Z,159.59
2023-03-17T16:53:33.116Z,159.04
2023-03-17T16:57:33.092Z,158.92
2023-03-17T17:01:33.090Z,157.99
2023-03-17T17:05:33.047Z,158.59
2023-03-17T17:09:32.977Z,158.17
2023-03-17T17:13:32.946Z,157.75
2023-03-17T17:17:32.902Z,157.21
2023-03-17T17:21:32.954Z,157.10
2023-03-17T17:25:33.288Z,157.01
2023-03-17T17:29:32.816Z,156.54
2023-03-17T17:33:32.780Z,156.18
2023-03-17T17:37:32.776Z,155.09
2023-03-17T17:41:32.787Z,154.45
2023-03-17T17:45:32.683Z,156.26
2023-03-17T17:49:32.734Z,155.67
2023-03-17T17:53:32.808Z,156.38
2023-03-17T17:57:32.879Z,155.87
2023-03-17T18:01:33.020Z,154.71
2023-03-17T18:05:33.036Z,154.46
2023-03-17T18:09:33.107Z,154.95
2023-03-17T18:13:33.192Z,153.64
2023-03-17T18:17:33.268Z,154.10
2023-03-17T18:21:33.363Z,153.20
2023-03-17T18:25:33.478Z,152.36
2023-03-17T18:29:33.614Z,152.69
2023-03-17T18:33:33.699Z,152.54
2023-03-17T18:37:33.771Z,153.39
2023-03-17T18:41:33.877Z,152.02
2023-03-17T18:45:34.120Z,151.81
2023-03-17T18:49:34.153Z,150.14
2023-03-17T18:53:34.281Z,151.07
2023-03-17T18:57:34.384Z,150.94
2023-03-17T19:01:34.534Z,150.09
2023-03-17T19:05:34.645Z,149.23
2023-03-17T19:09:34.742Z,150.93
2023-03-17T19:13:35.395Z,149.95
2023-03-17T19:17:35.032Z,150.66
2023-03-17T19:21:35.173Z,147.67
2023-03-17T19:25:35.381Z,148.03
2023-03-17T19:29:35.468Z,147.90
2023-03-17T19:33:35.589Z,147.16
2023-03-17T19:37:35.714Z,146.95
2023-03-17T19:41:35.846Z,147.21
2023-03-17T19:45:36.004Z,146.90
2023-03-17T19:49:36.164Z,146.46
2023-03-17T19:53:36.299Z,146.21
2023-03-17T19:57:36.435Z,145.74
2023-03-17T20:01:36.642Z,143.64
2023-03-17T20:05:36.728Z,144.33
2023-03-17T20:09:36.856Z,144.09
2023-03-17T20:13:36.997Z,144.43
2023-03-17T20:17:37.174Z,145.61
2023-03-17T20:21:37.285Z,144.31
2023-03-17T20:25:37.444Z,142.28
2023-03-17T20:29:37.611Z,143.48
2023-03-17T20:33:37.760Z,143.81
2023-03-17T20:37:37.913Z,143.29
2023-03-17T20:41:38.066Z,143.52
2023-03-17T20:45:38.211Z,143.59
2023-03-17T20:49:38.405Z,142.83
2023-03-17T20:53:38.545Z,142.65
2023-03-17T20:57:38.730Z,142.48
2023-03-17T21:01:38.957Z,141.19
2023-03-17T21:05:39.009Z,141.36
2023-03-17T21:09:39.180Z,141.68
2023-03-17T21:13:39.294Z,141.69
2023-03-17T21:17:39.461Z,141.04
2023-03-17T21:21:39.644Z,139.20
2023-03-17T21:25:39.812Z,139.55
2023-03-17T21:29:39.988Z,140.43
2023-03-17T21:33:40.159Z,139.57
2023-03-17T21:37:40.356Z,139.97
2023-03-17T21:41:40.538Z,139.50
2023-03-17T21:45:40.735Z,139.51
2023-03-17T21:49:40.937Z,139.16
2023-03-17T21:53:41.106Z,139.01
2023-03-17T21:57:41.321Z,138.53
2023-03-17T22:01:41.673Z,138.61
2023-03-17T22:05:41.680Z,138.26
2023-03-17T22:09:41.899Z,138.15
2023-03-17T22:13:42.874Z,137.55
2023-03-17T22:17:42.255Z,138.07
2023-03-17T22:21:42.431Z,137.05
2023-03-17T22:25:42.630Z,137.36
2023-03-17T22:29:42.870Z,136.90
2023-03-17T22:33:43.061Z,137.18
2023-03-17T22:37:43.273Z,136.03
2023-03-17T22:41:43.448Z,136.19
2023-03-17T22:45:43.536Z,136.53
2023-03-17T22:49:43.397Z,135.80
2023-03-17T22:53:43.346Z,136.55
2023-03-17T22:57:43.297Z,135.62
2023-03-17T23:01:43.448Z,136.49
2023-03-17T23:05:43.228Z,136.29
2023-03-17T23:09:43.226Z,136.27
2023-03-17T23:13:43.183Z,136.65
2023-03-17T23:17:43.156Z,134.51
2023-03-17T23:21:43.250Z,134.44
2023-03-17T23:25:43.218Z,135.74
2023-03-17T23:29:43.195Z,134.86
2023-03-17T23:33:43.156Z,134.73
2023-03-17T23:37:43.142Z,134.07
2023-03-17T23:41:43.077Z,133.85
2023-03-17T23:45:43.024Z,133.73
2023-03-17T23:49:43.034Z,134.66
2023-03-17T23:53:42.983Z,133.72
2023-03-17T23:57:42.930Z,133.72
